Terminal Aerodrome Forecast
Issued by NWS Cleveland, OH

Home | Current Version | Previous Version | Text Only | Print | Product List | Glossary Off
Versions: 1 2 3 4 5 6 7 8 9 10 11 12 13 14 15 16

514
FTUS41 KCLE 281728
TAFERI
TAF
KERI 281728Z 2818/2918 VRB04KT P6SM BKN200
     FM281900 32005KT P6SM VCSH SCT070 BKN200
     FM290000 VRB03KT P6SM BKN200
     FM291200 05007KT P6SM SCT050 BKN200=

USA.gov is the U.S. government's official web portal to all federal, state and local government web resources and services.